Time;durP1;ratioP1;P1;durP2;ratioP2;P2;SDS_P1;SDS_P2;PMS_P1;PMS_P2;Temp;Humidity;BMP_temperature;BMP_pressure;BME280_temperature;BME280_humidity;BME280_pressure;Samples;Min_cycle;Max_cycle;Signal;HPM_P1;HPM_P2
2023/08/11 00:00:42;;;;;;;0.00;0.00;;;15.20;99.90;;;;;;5023983;28;20018;-78
2023/08/11 00:03:08;;;;;;;0.08;0.00;;;15.10;99.90;;;;;;5023550;28;20044;-79
2023/08/11 00:05:37;;;;;;;0.00;0.00;;;15.20;99.90;;;;;;5023606;28;20022;-76
2023/08/11 00:08:05;;;;;;;0.00;0.00;;;15.20;99.90;;;;;;5006263;28;20026;-77
2023/08/11 00:10:32;;;;;;;0.00;0.00;;;15.20;99.90;;;;;;5023472;28;20026;-78
2023/08/11 00:12:58;;;;;;;0.17;0.17;;;15.20;99.90;;;;;;5010434;28;20018;-79
2023/08/11 00:15:24;;;;;;;0.00;0.00;;;15.20;99.90;;;;;;5000778;28;20044;-77
2023/08/11 00:18:00;;;;;;;0.00;0.00;;;15.30;99.90;;;;;;5021177;28;20049;-78
2023/08/11 00:20:28;;;;;;;0.00;0.00;;;15.30;99.90;;;;;;5002035;28;20026;-80
2023/08/11 00:22:54;;;;;;;0.00;0.00;;;15.40;99.90;;;;;;5001742;28;20057;-80
2023/08/11 00:25:20;;;;;;;0.00;0.00;;;15.40;99.90;;;;;;5017511;28;20056;-79
2023/08/11 00:27:47;;;;;;;0.00;0.00;;;15.40;99.90;;;;;;5020759;28;20034;-78
2023/08/11 00:30:12;;;;;;;0.00;0.00;;;15.40;99.90;;;;;;5021342;28;20018;-78
2023/08/11 00:32:38;;;;;;;0.00;0.00;;;15.50;99.90;;;;;;5020477;28;20064;-80
2023/08/11 00:35:05;;;;;;;0.28;0.28;;;15.50;99.90;;;;;;5019287;28;20033;-77
2023/08/11 00:37:31;;;;;;;0.00;0.00;;;15.50;99.90;;;;;;5001035;28;20034;-79
2023/08/11 00:39:58;;;;;;;0.00;0.00;;;15.60;99.90;;;;;;5019630;28;20044;-79
2023/08/11 00:42:23;;;;;;;0.00;0.00;;;15.60;99.90;;;;;;5019047;28;20033;-78
2023/08/11 00:44:49;;;;;;;0.00;0.00;;;15.60;99.90;;;;;;5019478;28;20033;-79
2023/08/11 00:47:16;;;;;;;0.00;0.00;;;15.60;99.90;;;;;;5017765;28;20018;-76
2023/08/11 00:49:43;;;;;;;;;;;15.60;99.90;;;;;;5002137;28;20069;-79
2023/08/11 00:52:10;;;;;;;0.00;0.00;;;15.70;99.90;;;;;;5016121;28;19905;-80
2023/08/11 00:54:36;;;;;;;0.00;0.00;;;15.80;99.90;;;;;;4998202;28;20022;-80
2023/08/11 00:57:03;;;;;;;;;;;15.80;99.90;;;;;;5018562;28;20037;-77
2023/08/11 00:59:28;;;;;;;0.00;0.00;;;15.80;99.90;;;;;;5003116;28;19905;-80
2023/08/11 01:01:54;;;;;;;0.00;0.00;;;15.80;99.90;;;;;;5020136;28;20126;-79
2023/08/11 01:04:20;;;;;;;0.05;0.05;;;15.80;99.90;;;;;;5003968;28;20045;-80
2023/08/11 01:06:56;;;;;;;0.00;0.00;;;15.90;99.90;;;;;;5023095;28;20037;-76
2023/08/11 01:09:44;;;;;;;0.00;0.00;;;15.80;99.90;;;;;;5006825;28;20018;-78
2023/08/11 01:12:12;;;;;;;;;;;15.90;99.90;;;;;;5023451;28;20462;-80
2023/08/11 01:14:56;;;;;;;0.00;0.00;;;15.80;99.90;;;;;;5007267;28;19912;-77
2023/08/11 01:17:23;;;;;;;0.43;0.20;;;15.90;99.90;;;;;;5024931;28;20025;-78
2023/08/11 01:19:49;;;;;;;0.00;0.00;;;15.80;99.90;;;;;;5024757;28;20030;-77
2023/08/11 01:22:19;;;;;;;0.00;0.00;;;15.80;99.90;;;;;;5022185;28;20080;-76
2023/08/11 01:24:45;;;;;;;0.00;0.00;;;15.80;99.90;;;;;;5023620;28;20044;-78
2023/08/11 01:27:12;;;;;;;0.15;0.15;;;15.80;99.90;;;;;;5024052;28;20018;-78
2023/08/11 01:29:39;;;;;;;0.00;0.00;;;15.80;99.90;;;;;;5024886;28;20136;-78
2023/08/11 01:32:05;;;;;;;0.00;0.00;;;15.80;99.90;;;;;;5006492;28;20036;-77
2023/08/11 01:34:32;;;;;;;0.00;0.00;;;15.80;99.90;;;;;;5025703;28;20030;-76
2023/08/11 01:37:00;;;;;;;0.00;0.00;;;15.70;99.90;;;;;;4993796;28;20053;-79
2023/08/11 01:39:26;;;;;;;0.00;0.00;;;15.70;99.90;;;;;;5025184;28;20018;-79
2023/08/11 01:41:52;;;;;;;0.00;0.00;;;15.70;99.90;;;;;;5024761;28;20018;-80
2023/08/11 01:44:18;;;;;;;0.00;0.00;;;15.70;99.90;;;;;;5024425;28;20022;-77
2023/08/11 01:46:45;;;;;;;0.00;0.00;;;15.60;99.90;;;;;;5024843;28;20740;-75
2023/08/11 01:49:12;;;;;;;0.00;0.00;;;15.60;99.90;;;;;;5024988;28;20041;-77
2023/08/11 01:51:39;;;;;;;0.00;0.00;;;15.60;99.90;;;;;;5008623;28;20057;-78
2023/08/11 01:54:05;;;;;;;0.00;0.00;;;15.60;99.90;;;;;;5023188;28;20056;-79
2023/08/11 01:56:31;;;;;;;0.00;0.00;;;15.60;99.90;;;;;;5007567;28;20041;-78
2023/08/11 01:58:57;;;;;;;0.00;0.00;;;15.60;99.90;;;;;;5005632;28;20038;-78
2023/08/11 02:01:24;;;;;;;0.00;0.00;;;15.60;99.90;;;;;;5008516;28;20033;-79
2023/08/11 02:03:52;;;;;;;0.00;0.00;;;15.60;99.90;;;;;;5025375;28;20038;-76
2023/08/11 02:06:18;;;;;;;0.08;0.08;;;15.50;99.90;;;;;;5028410;28;20025;-76
2023/08/11 02:08:44;;;;;;;0.00;0.00;;;15.50;99.90;;;;;;5026934;28;20078;-77
2023/08/11 02:11:10;;;;;;;0.05;0.05;;;15.50;99.90;;;;;;5024605;28;20582;-78
2023/08/11 02:13:35;;;;;;;0.00;0.00;;;15.50;99.90;;;;;;5026074;28;20080;-78
2023/08/11 02:16:01;;;;;;;0.00;0.00;;;15.50;99.90;;;;;;5028453;28;20009;-80
2023/08/11 02:18:27;;;;;;;0.00;0.00;;;15.50;99.90;;;;;;5023686;28;20017;-79
2023/08/11 02:20:52;;;;;;;0.22;0.22;;;15.50;99.90;;;;;;5026213;28;20041;-76
2023/08/11 02:23:18;;;;;;;0.00;0.00;;;15.50;99.90;;;;;;5028218;28;20034;-76
2023/08/11 02:25:45;;;;;;;0.00;0.00;;;15.60;99.90;;;;;;5026294;28;20048;-76
2023/08/11 02:28:10;;;;;;;0.00;0.00;;;15.70;99.90;;;;;;5028269;28;20022;-77
2023/08/11 02:30:36;;;;;;;0.00;0.00;;;15.80;99.90;;;;;;5025386;28;20018;-78
2023/08/11 02:33:02;;;;;;;0.00;0.00;;;15.80;99.90;;;;;;5009824;28;20022;-77
2023/08/11 02:35:28;;;;;;;0.00;0.00;;;15.80;99.90;;;;;;5027354;28;20422;-79
2023/08/11 02:37:53;;;;;;;0.00;0.00;;;15.80;99.90;;;;;;5027177;28;20029;-78
2023/08/11 02:40:22;;;;;;;0.00;0.00;;;15.80;99.90;;;;;;5011539;28;20021;-75
2023/08/11 02:42:59;;;;;;;0.10;0.10;;;15.70;99.90;;;;;;5027988;28;20072;-76
2023/08/11 02:45:25;;;;;;;0.00;0.00;;;15.70;99.90;;;;;;5019952;28;20018;-78
2023/08/11 02:47:51;;;;;;;0.00;0.00;;;15.60;99.90;;;;;;5026577;28;20029;-77
2023/08/11 02:50:17;;;;;;;0.00;0.00;;;15.60;99.90;;;;;;5009245;28;20018;-78
2023/08/11 02:52:43;;;;;;;0.10;0.05;;;15.50;99.90;;;;;;5024003;28;20033;-76
2023/08/11 02:55:11;;;;;;;0.00;0.00;;;15.50;99.90;;;;;;5026175;28;20041;-76
2023/08/11 02:57:37;;;;;;;0.00;0.00;;;15.50;99.90;;;;;;5007612;28;20034;-77
2023/08/11 03:00:10;;;;;;;0.00;0.00;;;15.50;99.90;;;;;;5027267;28;20065;-78
2023/08/11 03:02:36;;;;;;;0.00;0.00;;;15.40;99.90;;;;;;5023972;28;20045;-79
2023/08/11 03:05:03;;;;;;;0.00;0.00;;;15.40;99.90;;;;;;5008073;28;20030;-79
2023/08/11 03:07:31;;;;;;;0.00;0.00;;;15.40;99.90;;;;;;5023383;28;20144;-80
2023/08/11 03:09:56;;;;;;;0.00;0.00;;;15.30;99.90;;;;;;5022338;28;20010;-77
2023/08/11 03:12:22;;;;;;;0.00;0.00;;;15.20;99.90;;;;;;5032575;28;20021;-75
2023/08/11 03:14:48;;;;;;;0.00;0.00;;;15.10;99.90;;;;;;5032352;28;20038;-76
2023/08/11 03:17:14;;;;;;;0.00;0.00;;;15.00;99.90;;;;;;5028485;28;20037;-75
2023/08/11 03:19:39;;;;;;;0.00;0.00;;;14.90;99.90;;;;;;5013351;28;20013;-76
2023/08/11 03:22:05;;;;;;;0.00;0.00;;;14.70;99.90;;;;;;5012794;28;20026;-78
2023/08/11 03:24:31;;;;;;;0.00;0.00;;;14.60;99.90;;;;;;5009472;28;20070;-76
2023/08/11 03:26:56;;;;;;;0.00;0.00;;;14.60;99.90;;;;;;5011473;28;20284;-76
2023/08/11 03:29:22;;;;;;;0.00;0.00;;;14.60;99.90;;;;;;5027841;28;20044;-76
2023/08/11 03:31:48;;;;;;;0.00;0.00;;;14.50;99.90;;;;;;5030507;28;20323;-76
2023/08/11 03:34:14;;;;;;;0.00;0.00;;;14.40;99.90;;;;;;5028445;28;20022;-75
2023/08/11 03:36:39;;;;;;;0.00;0.00;;;14.40;99.90;;;;;;5011031;28;20026;-76
2023/08/11 03:39:06;;;;;;;0.00;0.00;;;14.30;99.90;;;;;;5028821;28;20080;-76
2023/08/11 03:41:31;;;;;;;;;;;14.30;99.90;;;;;;5029713;28;20285;-76
2023/08/11 03:43:57;;;;;;;0.00;0.00;;;14.20;99.90;;;;;;5027670;28;19913;-76
2023/08/11 03:46:23;;;;;;;0.00;0.00;;;14.20;99.90;;;;;;5194365;23;20048;-76
2023/08/11 03:48:49;;;;;;;0.00;0.00;;;14.20;99.90;;;;;;5030630;28;20025;-76
2023/08/11 03:51:15;;;;;;;0.00;0.00;;;13.70;99.90;;;;;;5063318;28;20033;-75
2023/08/11 04:04:02;;;;;;;0.00;0.00;;;14.00;99.90;;;;;;6052286;23;20029;-76
2023/08/11 04:06:32;;;;;;;0.00;0.00;;;14.10;99.90;;;;;;5048217;28;20145;-75
2023/08/11 04:08:59;;;;;;;0.10;0.00;;;14.00;99.90;;;;;;5047203;28;20051;-76
2023/08/11 04:11:29;;;;;;;0.00;0.00;;;14.00;99.90;;;;;;5049764;28;20559;-76
2023/08/11 04:13:56;;;;;;;0.00;0.00;;;14.00;99.90;;;;;;5023312;28;20014;-76
2023/08/11 04:16:22;;;;;;;0.00;0.00;;;14.10;99.90;;;;;;5056983;28;20056;-76
2023/08/11 04:18:48;;;;;;;0.00;0.00;;;14.20;99.90;;;;;;5061766;28;20332;-77
2023/08/11 04:21:14;;;;;;;0.00;0.00;;;14.20;99.90;;;;;;5050743;28;20032;-76
2023/08/11 04:23:40;;;;;;;0.00;0.00;;;14.20;99.90;;;;;;5045052;28;20029;-77
2023/08/11 04:26:06;;;;;;;0.03;0.00;;;14.30;99.90;;;;;;5056991;28;20032;-76
2023/08/11 04:28:32;;;;;;;0.00;0.00;;;14.40;99.90;;;;;;5061434;28;20098;-78
2023/08/11 04:31:00;;;;;;;0.00;0.00;;;14.50;99.90;;;;;;5045646;28;20025;-76
2023/08/11 04:33:27;;;;;;;0.00;0.00;;;14.40;99.90;;;;;;5047066;28;20022;-76
2023/08/11 04:51:25;;;;;;;0.00;0.00;;;15.20;99.90;;;;;;6126399;23;20005;-76
2023/08/11 04:53:59;;;;;;;0.00;0.00;;;15.50;99.90;;;;;;5043508;28;20025;-76
2023/08/11 04:56:27;;;;;;;0.00;0.00;;;15.80;99.90;;;;;;5048254;28;20070;-78
2023/08/11 04:58:55;;;;;;;0.00;0.00;;;16.00;99.90;;;;;;5048013;28;20029;-76
2023/08/11 05:01:22;;;;;;;0.00;0.00;;;15.90;99.90;;;;;;5040553;28;20018;-77
2023/08/11 05:03:49;;;;;;;0.00;0.00;;;15.90;99.90;;;;;;5017852;28;20029;-77
2023/08/11 05:06:16;;;;;;;0.00;0.00;;;15.80;99.90;;;;;;4997898;28;20034;-74
2023/08/11 05:08:43;;;;;;;0.00;0.00;;;16.00;99.90;;;;;;5001271;28;20030;-77
2023/08/11 05:11:09;;;;;;;0.00;0.00;;;16.10;99.90;;;;;;4990385;28;20028;-77
2023/08/11 05:13:35;;;;;;;0.55;0.32;;;16.20;99.90;;;;;;4981555;28;20045;-76
2023/08/11 05:16:01;;;;;;;0.00;0.00;;;16.40;99.90;;;;;;4991106;28;20040;-77
2023/08/11 05:18:27;;;;;;;0.00;0.00;;;16.40;99.90;;;;;;4999540;28;20036;-78
2023/08/11 05:20:53;;;;;;;0.05;0.05;;;16.40;99.90;;;;;;5017489;28;20037;-78
2023/08/11 05:51:47;;;;;;;0.03;0.03;;;19.00;99.90;;;;;;5261041;23;20095;-75
2023/08/11 05:54:13;;;;;;;0.00;0.00;;;19.50;99.90;;;;;;5050321;28;20052;-76
2023/08/11 05:56:39;;;;;;;0.00;0.00;;;20.00;99.90;;;;;;5047572;28;20025;-77
2023/08/11 05:59:06;;;;;;;0.00;0.00;;;20.40;99.90;;;;;;5046851;28;20140;-78
2023/08/11 06:01:33;;;;;;;0.00;0.00;;;21.20;99.90;;;;;;5033940;28;20052;-78
2023/08/11 06:04:00;;;;;;;1.25;0.22;;;21.30;99.90;;;;;;5062365;28;20013;-76
2023/08/11 06:06:26;;;;;;;0.00;0.00;;;22.00;99.90;;;;;;5030171;28;20029;-76
2023/08/11 06:24:24;;;;;;;0.00;0.00;;;23.70;98.40;;;;;;5740447;23;20041;-85
2023/08/11 06:26:51;;;;;;;;;;;24.90;97.00;;;;;;5012789;28;20488;-86
2023/08/11 06:29:17;;;;;;;0.00;0.00;;;25.40;96.20;;;;;;5048076;28;19916;-76
2023/08/11 06:31:42;;;;;;;0.00;0.00;;;24.30;96.40;;;;;;5051716;28;20020;-76
2023/08/11 06:34:08;;;;;;;0.52;0.22;;;24.60;96.50;;;;;;5023581;28;20033;-82
2023/08/11 06:36:34;;;;;;;0.00;0.00;;;25.20;95.80;;;;;;5012263;28;20034;-86
2023/08/11 06:39:00;;;;;;;0.00;0.00;;;26.30;93.70;;;;;;5038523;28;20040;-84
2023/08/11 06:41:25;;;;;;;0.00;0.00;;;27.10;91.90;;;;;;5031263;28;20051;-83
2023/08/11 06:43:53;;;;;;;0.20;0.10;;;28.20;89.00;;;;;;5033978;28;20021;-83
2023/08/11 06:46:18;;;;;;;0.00;0.00;;;29.20;86.60;;;;;;5024958;28;20033;-83
2023/08/11 06:48:44;;;;;;;0.00;0.00;;;29.40;81.30;;;;;;5037063;28;20021;-78
2023/08/11 06:51:10;;;;;;;0.00;0.00;;;29.30;80.20;;;;;;5023436;28;20021;-82
2023/08/11 06:53:35;;;;;;;0.10;0.10;;;30.60;77.40;;;;;;5028235;28;20250;-77
2023/08/11 06:56:01;;;;;;;0.00;0.00;;;31.90;73.20;;;;;;5023179;28;20136;-80
2023/08/11 06:58:27;;;;;;;0.00;0.00;;;33.20;69.20;;;;;;5035009;28;20099;-80
2023/08/11 07:00:54;;;;;;;0.00;0.00;;;33.20;66.80;;;;;;5021201;28;20045;-82
2023/08/11 07:03:19;;;;;;;0.57;0.08;;;33.90;65.00;;;;;;5021970;28;20017;-81
2023/08/11 07:05:45;;;;;;;0.00;0.00;;;34.10;63.20;;;;;;4989419;28;20552;-78
2023/08/11 07:08:12;;;;;;;0.00;0.00;;;34.80;61.80;;;;;;4994657;28;20156;-80
2023/08/11 07:10:39;;;;;;;0.00;0.00;;;35.10;59.70;;;;;;5017318;28;20036;-82
2023/08/11 07:13:04;;;;;;;0.03;0.03;;;34.60;60.90;;;;;;4997364;28;20037;-82
2023/08/11 07:15:30;;;;;;;0.00;0.00;;;35.00;59.50;;;;;;5005402;28;20038;-81
2023/08/11 07:17:56;;;;;;;0.00;0.00;;;35.00;58.80;;;;;;4999420;28;20030;-80
2023/08/11 07:20:21;;;;;;;0.10;0.10;;;35.40;58.30;;;;;;4984834;28;20391;-81
2023/08/11 07:22:47;;;;;;;0.00;0.00;;;35.90;56.70;;;;;;5004701;28;20689;-82
2023/08/11 07:25:13;;;;;;;0.00;0.00;;;36.10;56.60;;;;;;5020036;28;20103;-82
2023/08/11 07:27:38;;;;;;;0.00;0.00;;;35.90;55.50;;;;;;5000763;28;20029;-83
2023/08/11 07:30:05;;;;;;;0.00;0.00;;;35.80;55.50;;;;;;5003383;28;20838;-83
2023/08/11 07:32:30;;;;;;;0.00;0.00;;;35.70;55.30;;;;;;4999632;28;20022;-82
2023/08/11 07:34:56;;;;;;;0.00;0.00;;;35.50;55.50;;;;;;5021588;28;20053;-83
2023/08/11 07:37:22;;;;;;;0.00;0.00;;;35.60;56.40;;;;;;4981299;28;20046;-81
2023/08/11 07:39:48;;;;;;;0.00;0.00;;;35.70;55.50;;;;;;5014918;28;20025;-83
2023/08/11 07:42:13;;;;;;;0.00;0.00;;;36.00;56.00;;;;;;5008879;28;20031;-82
2023/08/11 07:44:40;;;;;;;0.00;0.00;;;36.40;55.10;;;;;;5004590;28;20497;-82
2023/08/11 07:47:05;;;;;;;0.00;0.00;;;36.70;54.30;;;;;;4982063;28;20657;-83
2023/08/11 07:49:31;;;;;;;0.13;0.00;;;36.50;53.80;;;;;;4999446;28;20021;-83
2023/08/11 07:51:57;;;;;;;0.00;0.00;;;36.40;52.70;;;;;;5004052;28;20503;-82
2023/08/11 07:54:23;;;;;;;0.00;0.00;;;36.10;54.60;;;;;;5010658;28;20022;-82
2023/08/11 07:56:49;;;;;;;0.17;0.17;;;36.40;53.70;;;;;;4998964;28;20611;-82
2023/08/11 07:59:15;;;;;;;0.00;0.00;;;36.70;53.60;;;;;;4997088;28;20104;-78
2023/08/11 08:01:41;;;;;;;0.10;0.10;;;36.70;52.90;;;;;;5019246;28;20452;-82
2023/08/11 08:04:07;;;;;;;0.00;0.00;;;36.20;53.10;;;;;;5015253;28;20026;-82
2023/08/11 08:06:42;;;;;;;0.00;0.00;;;36.30;53.90;;;;;;4984322;28;20049;-82
2023/08/11 08:09:11;;;;;;;0.00;0.00;;;36.60;53.90;;;;;;5008944;28;20021;-83
2023/08/11 08:11:38;;;;;;;0.00;0.00;;;36.80;53.60;;;;;;5015028;28;20082;-83
2023/08/11 08:14:04;;;;;;;0.20;0.20;;;37.10;53.20;;;;;;4977267;28;20029;-81
2023/08/11 08:16:30;;;;;;;0.00;0.00;;;35.90;53.70;;;;;;5021275;28;20037;-83
2023/08/11 08:18:56;;;;;;;0.00;0.00;;;36.40;53.90;;;;;;5015749;28;20512;-83
2023/08/11 08:21:21;;;;;;;0.00;0.00;;;37.20;52.90;;;;;;4980656;28;20041;-83
2023/08/11 08:23:47;;;;;;;0.00;0.00;;;37.10;53.40;;;;;;5003946;28;20033;-78
2023/08/11 08:26:13;;;;;;;0.10;0.10;;;38.20;52.30;;;;;;5021873;28;20032;-82
2023/08/11 08:28:39;;;;;;;0.10;0.10;;;39.00;51.30;;;;;;5021627;28;20032;-81
2023/08/11 08:31:06;;;;;;;0.10;0.10;;;39.80;49.90;;;;;;4981620;28;20239;-84
2023/08/11 08:33:32;;;;;;;0.00;0.00;;;40.20;48.50;;;;;;5001158;28;20095;-82
2023/08/11 08:35:58;;;;;;;0.00;0.00;;;40.20;48.80;;;;;;5016206;28;20049;-83
2023/08/11 08:38:24;;;;;;;0.00;0.00;;;40.00;48.30;;;;;;5000402;28;20516;-84
2023/08/11 08:40:49;;;;;;;0.00;0.00;;;38.30;49.60;;;;;;5019433;28;20400;-81
2023/08/11 08:43:16;;;;;;;0.00;0.00;;;36.40;50.50;;;;;;4988486;28;20117;-79
2023/08/11 08:45:44;;;;;;;0.05;0.05;;;37.30;50.50;;;;;;5000798;28;20041;-87
2023/08/11 08:48:25;;;;;;;0.00;0.00;;;37.70;50.00;;;;;;5001252;28;20555;-83
2023/08/11 08:50:51;;;;;;;0.00;0.00;;;36.30;50.80;;;;;;4995984;28;20029;-82
2023/08/11 08:53:17;;;;;;;0.00;0.00;;;38.10;51.00;;;;;;5024903;28;20028;-78
2023/08/11 08:55:43;;;;;;;0.00;0.00;;;39.50;49.20;;;;;;4986136;28;20088;-81
2023/08/11 08:58:11;;;;;;;0.00;0.00;;;38.00;49.50;;;;;;4983185;28;20482;-85
2023/08/11 09:00:37;;;;;;;0.00;0.00;;;37.70;50.00;;;;;;5002910;28;20021;-81
2023/08/11 09:03:05;;;;;;;0.00;0.00;;;39.20;49.50;;;;;;5003372;28;20030;-84
2023/08/11 09:05:32;;;;;;;0.00;0.00;;;40.20;47.60;;;;;;4986433;28;20121;-79
2023/08/11 09:07:57;;;;;;;0.10;0.10;;;38.50;47.90;;;;;;4980885;28;20026;-83
2023/08/11 09:10:25;;;;;;;0.13;0.13;;;38.10;49.10;;;;;;5000049;28;20075;-81
2023/08/11 09:12:51;;;;;;;0.00;0.00;;;38.70;48.30;;;;;;4997859;28;20058;-82
2023/08/11 09:15:16;;;;;;;0.00;0.00;;;40.10;46.70;;;;;;4982747;28;20036;-82
2023/08/11 09:17:43;;;;;;;0.00;0.00;;;40.90;46.30;;;;;;5019756;28;20029;-81
2023/08/11 09:20:17;;;;;;;0.00;0.00;;;41.70;47.30;;;;;;5009977;28;20635;-83
2023/08/11 09:22:43;;;;;;;0.00;0.00;;;42.10;46.10;;;;;;4982851;28;20026;-82
2023/08/11 09:25:10;;;;;;;0.08;0.08;;;42.40;45.30;;;;;;5004654;28;20022;-81
2023/08/11 09:27:36;;;;;;;0.00;0.00;;;42.30;44.20;;;;;;5006291;28;20087;-83
2023/08/11 09:30:03;;;;;;;0.00;0.00;;;42.10;44.50;;;;;;5017028;28;20087;-83
2023/08/11 09:32:32;;;;;;;0.00;0.00;;;41.70;43.50;;;;;;5004680;28;20022;-81
2023/08/11 09:35:09;;;;;;;0.00;0.00;;;41.20;42.30;;;;;;5004356;28;20052;-83
2023/08/11 09:37:35;;;;;;;0.00;0.00;;;41.20;43.00;;;;;;4988948;28;20034;-81
2023/08/11 09:40:04;;;;;;;0.00;0.00;;;40.20;42.90;;;;;;4989155;28;20033;-81
2023/08/11 09:42:31;;;;;;;0.00;0.00;;;40.40;42.10;;;;;;4993303;28;20053;-82
2023/08/11 09:44:56;;;;;;;0.00;0.00;;;40.30;42.50;;;;;;4997509;28;20530;-83
2023/08/11 09:47:22;;;;;;;0.20;0.00;;;40.20;43.40;;;;;;5007674;28;20124;-81
2023/08/11 09:49:48;;;;;;;0.00;0.00;;;40.10;43.40;;;;;;5022747;28;20096;-76
2023/08/11 09:52:15;;;;;;;0.00;0.00;;;40.40;43.40;;;;;;5004413;28;20025;-80
2023/08/11 09:54:43;;;;;;;0.05;0.05;;;40.30;41.40;;;;;;5004215;28;20033;-82
2023/08/11 09:57:11;;;;;;;0.00;0.00;;;39.90;43.20;;;;;;5018660;28;20021;-81
2023/08/11 09:59:38;;;;;;;0.00;0.00;;;39.90;42.70;;;;;;5024143;28;20013;-81
2023/08/11 10:02:05;;;;;;;0.00;0.00;;;40.10;42.20;;;;;;4987624;28;20088;-81
2023/08/11 10:04:41;;;;;;;0.00;0.00;;;40.50;42.60;;;;;;4965075;28;20413;-81
2023/08/11 10:07:12;;;;;;;0.00;0.00;;;40.10;43.50;;;;;;4985186;28;20113;-81
2023/08/11 10:09:39;;;;;;;0.20;0.20;;;40.50;44.50;;;;;;4966647;28;20110;-83
2023/08/11 10:12:06;;;;;;;0.00;0.00;;;40.00;43.90;;;;;;4989277;28;20029;-83
2023/08/11 10:14:34;;;;;;;0.00;0.00;;;40.80;44.30;;;;;;4986134;28;20030;-81
2023/08/11 10:17:00;;;;;;;0.10;0.10;;;40.70;42.50;;;;;;4999953;28;20086;-79
2023/08/11 10:19:26;;;;;;;0.00;0.00;;;40.20;43.60;;;;;;5006865;28;20029;-82
2023/08/11 10:21:53;;;;;;;0.00;0.00;;;39.90;44.20;;;;;;4988765;28;20034;-84
2023/08/11 10:24:20;;;;;;;0.00;0.00;;;38.50;44.50;;;;;;4982662;28;20593;-83
2023/08/11 10:26:47;;;;;;;0.57;0.08;;;38.40;45.00;;;;;;4966586;28;20049;-82
2023/08/11 10:29:13;;;;;;;0.00;0.00;;;39.30;44.00;;;;;;4965449;28;20026;-83
2023/08/11 10:31:56;;;;;;;0.00;0.00;;;40.50;43.20;;;;;;4999752;28;20403;-82
2023/08/11 10:34:23;;;;;;;0.00;0.00;;;41.50;42.70;;;;;;5023967;28;20490;-81
2023/08/11 10:36:49;;;;;;;0.00;0.00;;;42.10;42.30;;;;;;5010904;28;20326;-78
2023/08/11 10:39:18;;;;;;;0.03;0.03;;;41.80;42.30;;;;;;4986132;28;20025;-83
2023/08/11 10:41:45;;;;;;;0.00;0.00;;;42.20;43.10;;;;;;4988334;28;20117;-82
2023/08/11 10:44:11;;;;;;;0.00;0.00;;;41.50;42.50;;;;;;4981922;28;20833;-82
2023/08/11 10:46:38;;;;;;;0.00;0.00;;;41.20;42.80;;;;;;5009867;28;20021;-82
2023/08/11 10:49:04;;;;;;;0.08;0.08;;;40.30;42.00;;;;;;5020158;28;20040;-84
2023/08/11 10:51:39;;;;;;;0.00;0.00;;;40.50;43.20;;;;;;5018318;28;20089;-82
2023/08/11 10:54:11;;;;;;;0.00;0.00;;;41.10;42.70;;;;;;5003138;28;20048;-83
2023/08/11 10:56:45;;;;;;;0.10;0.10;;;41.90;42.00;;;;;;5007968;28;20356;-82
2023/08/11 10:59:18;;;;;;;0.10;0.10;;;41.30;41.80;;;;;;5005390;28;20170;-82
2023/08/11 11:01:51;;;;;;;0.00;0.00;;;41.70;41.50;;;;;;5016949;28;20037;-83
2023/08/11 11:04:18;;;;;;;0.00;0.00;;;40.80;41.00;;;;;;4994636;28;20540;-80
2023/08/11 11:06:45;;;;;;;0.00;0.00;;;39.00;41.00;;;;;;4992536;28;20119;-82
2023/08/11 11:09:11;;;;;;;0.00;0.00;;;36.70;44.60;;;;;;5006234;28;20511;-82
2023/08/11 11:11:37;;;;;;;0.00;0.00;;;35.10;45.40;;;;;;5001857;28;20018;-84
2023/08/11 11:14:08;;;;;;;0.00;0.00;;;33.80;45.80;;;;;;5003408;28;20481;-84
2023/08/11 11:16:34;;;;;;;0.00;0.00;;;32.80;47.40;;;;;;5002001;28;20026;-86
2023/08/11 11:19:01;;;;;;;0.05;0.05;;;32.00;48.20;;;;;;5005068;28;20037;-86
2023/08/11 11:21:26;;;;;;;0.00;0.00;;;31.40;48.50;;;;;;5002974;28;20424;-84
2023/08/11 11:23:52;;;;;;;0.00;0.00;;;30.90;48.80;;;;;;4986504;28;20038;-85
2023/08/11 11:26:24;;;;;;;0.00;0.00;;;30.50;49.90;;;;;;4986313;28;20462;-86
2023/08/11 11:28:51;;;;;;;0.10;0.10;;;30.30;49.90;;;;;;5021917;28;20090;-87
2023/08/11 11:31:17;;;;;;;0.10;0.00;;;29.90;50.00;;;;;;5004773;28;20076;-85
2023/08/11 11:33:44;;;;;;;0.00;0.00;;;29.70;50.30;;;;;;4981106;28;20068;-85
2023/08/11 11:36:11;;;;;;;0.00;0.00;;;29.80;51.10;;;;;;4965098;28;20101;-87
2023/08/11 11:38:37;;;;;;;0.00;0.00;;;29.80;51.10;;;;;;4992671;28;20037;-81
2023/08/11 11:41:03;;;;;;;0.00;0.00;;;29.70;51.10;;;;;;5021080;28;20033;-83
2023/08/11 11:43:28;;;;;;;0.00;0.00;;;29.80;51.40;;;;;;5002613;28;20488;-77
2023/08/11 11:45:55;;;;;;;0.00;0.00;;;29.60;50.80;;;;;;4986223;28;20046;-87
2023/08/11 11:48:21;;;;;;;0.00;0.00;;;29.20;51.40;;;;;;4962119;28;20524;-76
2023/08/11 11:50:47;;;;;;;0.00;0.00;;;29.00;51.30;;;;;;4985726;28;20717;-88
2023/08/11 11:53:13;;;;;;;0.00;0.00;;;29.00;51.40;;;;;;5001464;28;20029;-86
2023/08/11 11:55:46;;;;;;;0.00;0.00;;;29.30;51.90;;;;;;5021818;28;20232;-83
2023/08/11 11:58:15;;;;;;;0.00;0.00;;;29.50;51.50;;;;;;5014312;28;20026;-85
2023/08/11 12:00:42;;;;;;;0.00;0.00;;;29.50;51.70;;;;;;4983391;28;20424;-86
2023/08/11 12:03:09;;;;;;;0.00;0.00;;;29.50;53.00;;;;;;4993747;28;20038;-83
2023/08/11 12:05:35;;;;;;;0.00;0.00;;;29.50;50.40;;;;;;5005611;28;20369;-85
2023/08/11 12:08:24;;;;;;;0.00;0.00;;;29.40;51.80;;;;;;4995609;28;20032;-90
2023/08/11 12:10:50;;;;;;;0.00;0.00;;;29.20;52.50;;;;;;4982134;28;20022;-87
2023/08/11 12:13:17;;;;;;;0.00;0.00;;;29.00;53.50;;;;;;4997466;28;20448;-87
2023/08/11 12:15:47;;;;;;;0.00;0.00;;;29.10;54.00;;;;;;4999514;28;20029;-87
2023/08/11 12:18:13;;;;;;;0.25;0.25;;;28.70;53.60;;;;;;5010344;28;20040;-86
2023/08/11 12:20:40;;;;;;;0.00;0.00;;;28.60;54.00;;;;;;5007976;28;20068;-83
2023/08/11 12:23:06;;;;;;;0.10;0.10;;;28.70;53.80;;;;;;4992784;28;20382;-84
2023/08/11 12:25:32;;;;;;;0.00;0.00;;;28.60;52.50;;;;;;4983460;28;20030;-83
2023/08/11 12:28:01;;;;;;;0.00;0.00;;;28.60;52.80;;;;;;4969522;28;20033;-86
2023/08/11 12:30:27;;;;;;;0.00;0.00;;;28.60;54.50;;;;;;5022044;28;20384;-87
2023/08/11 12:32:53;;;;;;;0.00;0.00;;;28.70;54.30;;;;;;5016007;28;20025;-88
2023/08/11 12:35:19;;;;;;;0.00;0.00;;;28.70;53.10;;;;;;4984713;28;20038;-88
2023/08/11 12:37:44;;;;;;;0.00;0.00;;;28.70;53.70;;;;;;4984462;28;20080;-85
2023/08/11 12:40:11;;;;;;;0.00;0.00;;;28.50;54.20;;;;;;5018135;28;20108;-83
2023/08/11 12:42:38;;;;;;;0.00;0.00;;;28.40;54.60;;;;;;5013016;28;20105;-82
2023/08/11 12:45:05;;;;;;;0.00;0.00;;;28.30;53.40;;;;;;5023805;28;20033;-82
2023/08/11 12:47:31;;;;;;;0.00;0.00;;;28.20;54.00;;;;;;5021743;28;20017;-86
2023/08/11 12:49:59;;;;;;;0.00;0.00;;;28.30;53.70;;;;;;5000929;28;20060;-87
2023/08/11 12:55:00;;;;;;;0.00;0.00;;;27.90;52.10;;;;;;5190053;23;20505;-86
2023/08/11 12:57:26;;;;;;;0.00;0.00;;;28.10;53.20;;;;;;5021909;28;20028;-84
2023/08/11 12:59:52;;;;;;;0.00;0.00;;;28.20;54.10;;;;;;5023618;28;20067;-86
2023/08/11 13:02:18;;;;;;;0.00;0.00;;;28.40;52.60;;;;;;5028123;28;20381;-83
2023/08/11 13:04:44;;;;;;;0.20;0.05;;;28.40;52.20;;;;;;5019060;28;20113;-85
2023/08/11 13:07:10;;;;;;;0.00;0.00;;;28.40;51.30;;;;;;4989973;28;20094;-83
2023/08/11 13:09:35;;;;;;;0.00;0.00;;;28.20;51.50;;;;;;4998568;28;20029;-84
2023/08/11 13:12:01;;;;;;;0.00;0.00;;;27.80;52.80;;;;;;4997595;28;20027;-86
2023/08/11 13:14:27;;;;;;;0.00;0.00;;;27.90;53.30;;;;;;4985382;28;20026;-85
2023/08/11 13:16:53;;;;;;;0.00;0.00;;;28.10;53.20;;;;;;4973319;28;20030;-81
2023/08/11 13:19:19;;;;;;;0.10;0.00;;;28.20;52.90;;;;;;5003876;28;20022;-79
2023/08/11 13:21:44;;;;;;;0.00;0.00;;;28.00;53.40;;;;;;5026108;28;20132;-81
2023/08/11 13:24:10;;;;;;;0.00;0.00;;;27.90;54.40;;;;;;5001571;28;20100;-84
2023/08/11 13:26:36;;;;;;;0.00;0.00;;;27.90;54.00;;;;;;4988387;28;20029;-83
2023/08/11 13:29:02;;;;;;;0.00;0.00;;;28.10;53.60;;;;;;5007280;28;20024;-86
2023/08/11 13:31:27;;;;;;;0.00;0.00;;;28.30;53.60;;;;;;5009204;28;20029;-86
2023/08/11 13:33:53;;;;;;;0.10;0.10;;;28.20;53.10;;;;;;5004553;28;20037;-86
2023/08/11 13:36:20;;;;;;;0.00;0.00;;;28.20;54.10;;;;;;5005159;28;20037;-84
2023/08/11 13:38:46;;;;;;;0.00;0.00;;;28.10;53.50;;;;;;4988141;28;20041;-84
2023/08/11 13:41:12;;;;;;;0.00;0.00;;;28.10;54.30;;;;;;5025717;28;20108;-83
2023/08/11 13:43:37;;;;;;;0.00;0.00;;;28.10;54.60;;;;;;4989363;28;20114;-83
2023/08/11 13:46:04;;;;;;;0.00;0.00;;;27.90;54.50;;;;;;5011744;28;20060;-76
2023/08/11 13:48:30;;;;;;;0.00;0.00;;;27.50;55.00;;;;;;5020496;28;20177;-79
2023/08/11 13:50:56;;;;;;;0.00;0.00;;;27.40;56.30;;;;;;5018474;28;20335;-85
2023/08/11 13:53:22;;;;;;;0.00;0.00;;;27.50;56.70;;;;;;5024782;28;20061;-77
2023/08/11 13:55:48;;;;;;;0.00;0.00;;;27.60;56.10;;;;;;5008996;28;20064;-84
2023/08/11 13:58:19;;;;;;;0.00;0.00;;;27.70;55.70;;;;;;5004024;28;20104;-85